createdAt,value
2019-03-26T00:01:04.786Z,17.50
2019-03-26T00:03:31.416Z,17.30
2019-03-26T00:05:57.835Z,13.00
2019-03-26T00:08:24.487Z,17.00
2019-03-26T00:10:50.848Z,17.63
2019-03-26T00:13:17.196Z,11.77
2019-03-26T00:15:43.515Z,19.10
2019-03-26T00:18:10.956Z,18.53
2019-03-26T00:20:37.575Z,19.83
2019-03-26T00:23:04.225Z,18.77
2019-03-26T00:25:34.969Z,16.97
2019-03-26T00:28:01.350Z,18.60
2019-03-26T00:30:27.759Z,19.93
2019-03-26T00:32:54.098Z,15.90
2019-03-26T00:35:20.434Z,12.37
2019-03-26T00:37:46.827Z,14.03
2019-03-26T00:40:13.580Z,17.60
2019-03-26T00:42:40.436Z,16.40
2019-03-26T00:45:07.251Z,17.73
2019-03-26T00:47:34.603Z,20.07
2019-03-26T00:50:00.932Z,16.57
2019-03-26T00:52:27.280Z,19.30
2019-03-26T00:54:54.032Z,17.60
2019-03-26T00:57:20.435Z,18.90
2019-03-26T00:59:47.073Z,27.37
2019-03-26T01:02:13.441Z,13.00
2019-03-26T01:04:39.900Z,17.13
2019-03-26T01:07:06.573Z,16.37
2019-03-26T01:09:33.335Z,10.57
2019-03-26T01:11:59.769Z,20.70
2019-03-26T01:14:26.078Z,11.93
2019-03-26T01:16:52.499Z,11.47
2019-03-26T01:19:18.844Z,18.23
2019-03-26T01:21:45.613Z,10.47
2019-03-26T01:24:11.924Z,14.40
2019-03-26T01:26:38.267Z,12.03
2019-03-26T01:29:04.604Z,10.73
2019-03-26T01:31:31.314Z,14.90
2019-03-26T01:33:57.986Z,11.37
2019-03-26T01:36:25.106Z,12.10
2019-03-26T01:38:52.381Z,12.80
2019-03-26T01:41:19.019Z,9.73
2019-03-26T01:43:46.337Z,11.40
2019-03-26T01:46:12.916Z,15.00
2019-03-26T01:48:39.522Z,14.50
2019-03-26T01:51:06.169Z,15.23
2019-03-26T01:53:32.906Z,15.07
2019-03-26T01:55:59.552Z,13.20
2019-03-26T01:58:25.930Z,13.63
2019-03-26T02:00:52.638Z,10.30
2019-03-26T02:03:19.285Z,13.10
2019-03-26T02:05:45.635Z,13.50
2019-03-26T02:08:12.009Z,13.07
2019-03-26T02:10:38.660Z,16.40
2019-03-26T02:13:05.046Z,13.30
2019-03-26T02:15:32.086Z,18.93
2019-03-26T02:17:58.662Z,12.40
2019-03-26T02:20:25.330Z,12.50
2019-03-26T02:22:51.706Z,16.03
2019-03-26T02:25:18.402Z,14.40
2019-03-26T02:27:44.769Z,15.20
2019-03-26T02:30:11.204Z,14.03
2019-03-26T02:32:37.640Z,19.37
2019-03-26T02:35:16.930Z,15.63
2019-03-26T02:37:32.759Z,12.10
2019-03-26T02:40:00.724Z,12.87
2019-03-26T02:42:27.138Z,11.60
2019-03-26T02:44:53.519Z,13.00
2019-03-26T02:47:19.928Z,16.90
2019-03-26T02:49:46.425Z,18.30
2019-03-26T02:52:12.771Z,15.80
2019-03-26T02:54:39.125Z,15.53
2019-03-26T02:57:05.767Z,15.80
2019-03-26T02:59:32.189Z,17.77
2019-03-26T03:01:58.523Z,12.40
2019-03-26T03:04:25.391Z,15.87
2019-03-26T03:06:51.734Z,14.23
2019-03-26T03:09:18.096Z,12.07
2019-03-26T03:11:44.449Z,13.83
2019-03-26T03:14:10.766Z,11.47
2019-03-26T03:16:37.495Z,11.83
2019-03-26T03:19:03.862Z,12.60
2019-03-26T03:21:30.220Z,11.23
2019-03-26T03:23:56.568Z,13.20
2019-03-26T03:26:22.983Z,13.37
2019-03-26T03:28:49.661Z,13.60
2019-03-26T03:31:16.030Z,14.23
2019-03-26T03:33:42.913Z,14.00
2019-03-26T03:36:09.291Z,15.20
2019-03-26T03:38:35.624Z,12.47
2019-03-26T03:41:02.300Z,14.50
2019-03-26T03:43:28.729Z,12.93
2019-03-26T03:45:55.103Z,11.30
2019-03-26T03:48:22.520Z,10.70
2019-03-26T03:50:51.478Z,11.97
2019-03-26T03:53:18.601Z,11.87
2019-03-26T03:55:46.535Z,15.40
2019-03-26T03:58:13.588Z,12.40
2019-03-26T04:00:40.133Z,14.00
2019-03-26T04:03:08.222Z,14.00
2019-03-26T04:05:35.511Z,15.70
2019-03-26T04:08:02.135Z,12.30
2019-03-26T04:10:32.262Z,18.90
2019-03-26T04:12:59.099Z,12.73
2019-03-26T04:15:25.647Z,17.73
2019-03-26T04:17:52.076Z,15.10
2019-03-26T04:20:19.812Z,13.53
2019-03-26T04:22:46.303Z,14.83
2019-03-26T04:25:12.633Z,13.17
2019-03-26T04:27:39.810Z,13.50
2019-03-26T04:30:08.526Z,15.97
2019-03-26T04:32:34.912Z,13.83
2019-03-26T04:35:01.320Z,12.83
2019-03-26T04:37:28.050Z,13.50
2019-03-26T04:39:54.410Z,14.70
2019-03-26T04:42:20.886Z,13.80
2019-03-26T04:44:47.252Z,17.93
2019-03-26T04:47:13.986Z,21.13
2019-03-26T04:49:40.394Z,14.97
2019-03-26T04:52:07.059Z,13.90
2019-03-26T04:54:33.845Z,13.60
2019-03-26T04:57:00.522Z,19.83
2019-03-26T04:59:27.181Z,18.43
2019-03-26T05:01:54.030Z,16.30
2019-03-26T05:04:22.817Z,12.00
2019-03-26T05:06:49.419Z,18.30
2019-03-26T05:09:15.752Z,14.73
2019-03-26T05:11:42.242Z,12.17
2019-03-26T05:14:08.960Z,13.97
2019-03-26T05:16:35.325Z,14.80
2019-03-26T05:19:01.683Z,14.57
2019-03-26T05:21:28.032Z,11.80
2019-03-26T05:23:54.380Z,17.90
2019-03-26T05:26:20.718Z,12.43
2019-03-26T05:28:47.442Z,14.80
2019-03-26T05:31:14.178Z,18.10
2019-03-26T05:33:40.834Z,11.30
2019-03-26T05:36:07.230Z,12.83
2019-03-26T05:38:33.902Z,13.03
2019-03-26T05:41:00.649Z,13.30
2019-03-26T05:43:27.027Z,12.23
2019-03-26T05:45:53.378Z,12.40
2019-03-26T05:48:19.702Z,17.80
2019-03-26T05:50:46.056Z,12.60
2019-03-26T05:53:12.401Z,11.20
2019-03-26T05:55:38.729Z,13.70
2019-03-26T05:58:05.117Z,13.03
2019-03-26T06:00:31.420Z,14.03
2019-03-26T06:02:57.756Z,10.70
2019-03-26T06:05:24.163Z,14.33
2019-03-26T06:07:50.492Z,14.43
2019-03-26T06:10:17.263Z,12.60
2019-03-26T06:12:43.629Z,14.33
2019-03-26T06:15:10.414Z,24.10
2019-03-26T06:17:37.546Z,16.90
2019-03-26T06:20:08.972Z,13.00
2019-03-26T06:22:35.654Z,15.43
2019-03-26T06:25:04.747Z,13.90
2019-03-26T06:27:31.071Z,13.13
2019-03-26T06:29:57.432Z,12.10
2019-03-26T06:32:24.159Z,14.67
2019-03-26T06:34:50.883Z,14.17
2019-03-26T06:37:18.303Z,16.37
2019-03-26T06:39:45.325Z,16.50
2019-03-26T06:42:13.799Z,16.20
2019-03-26T06:44:40.549Z,16.13
2019-03-26T06:47:06.860Z,15.67
2019-03-26T06:49:33.222Z,15.47
2019-03-26T06:51:59.911Z,19.10
2019-03-26T06:54:26.553Z,18.57
2019-03-26T06:56:52.914Z,17.87
2019-03-26T06:59:20.035Z,17.67
2019-03-26T07:01:46.365Z,12.60
2019-03-26T07:04:12.762Z,15.23
2019-03-26T07:06:39.120Z,15.73
2019-03-26T07:09:06.477Z,14.87
2019-03-26T07:11:33.217Z,16.00
2019-03-26T07:13:59.549Z,16.53
2019-03-26T07:16:25.874Z,16.77
2019-03-26T07:18:53.432Z,17.97
2019-03-26T07:21:20.080Z,18.50
2019-03-26T07:23:46.826Z,19.23
2019-03-26T07:26:13.454Z,28.00
2019-03-26T07:28:39.831Z,25.07
2019-03-26T07:31:06.148Z,22.33
2019-03-26T07:33:32.520Z,20.50
2019-03-26T07:35:58.905Z,28.67
2019-03-26T07:38:25.248Z,25.67
2019-03-26T07:40:51.710Z,32.30
2019-03-26T07:43:18.391Z,23.50
2019-03-26T07:45:45.129Z,24.67
2019-03-26T07:48:11.777Z,24.47
2019-03-26T07:50:38.121Z,26.50
2019-03-26T07:53:04.454Z,20.60
2019-03-26T07:55:31.075Z,20.97
2019-03-26T07:57:57.715Z,23.43
2019-03-26T08:00:37.541Z,23.67
2019-03-26T08:03:05.142Z,24.20
2019-03-26T08:05:34.056Z,34.70
2019-03-26T08:08:00.750Z,22.87
2019-03-26T08:10:27.097Z,20.87
2019-03-26T08:12:53.768Z,29.90
2019-03-26T08:15:20.356Z,27.70
2019-03-26T08:17:46.833Z,27.13
2019-03-26T08:20:13.410Z,28.33
2019-03-26T08:22:39.808Z,30.87
2019-03-26T08:25:06.554Z,34.60
2019-03-26T08:27:32.882Z,27.03
2019-03-26T08:29:59.275Z,25.13
2019-03-26T08:32:25.676Z,27.10
2019-03-26T08:34:52.363Z,26.83
2019-03-26T08:37:19.090Z,39.37
2019-03-26T08:39:45.462Z,25.37
2019-03-26T08:42:11.764Z,28.90
2019-03-26T08:44:38.498Z,27.87
2019-03-26T08:47:04.818Z,31.83
2019-03-26T08:49:31.230Z,31.63
2019-03-26T08:51:57.558Z,32.00
2019-03-26T08:54:23.905Z,27.63
2019-03-26T08:56:50.246Z,25.90
2019-03-26T08:59:16.877Z,27.00
2019-03-26T09:01:43.507Z,29.13
2019-03-26T09:04:10.160Z,26.70
2019-03-26T09:06:37.005Z,27.20
2019-03-26T09:09:06.944Z,25.90
2019-03-26T09:11:33.385Z,19.93
2019-03-26T09:14:00.134Z,30.07
2019-03-26T09:16:26.493Z,24.83
2019-03-26T09:18:52.897Z,22.83
2019-03-26T09:21:19.237Z,31.33
2019-03-26T09:23:45.577Z,18.73
2019-03-26T09:26:11.901Z,17.10
2019-03-26T09:28:39.381Z,20.53
2019-03-26T09:31:05.721Z,15.57
2019-03-26T09:33:32.033Z,19.37
2019-03-26T09:35:58.391Z,12.90
2019-03-26T09:38:38.089Z,21.90
2019-03-26T09:40:53.322Z,15.83
2019-03-26T09:43:19.977Z,18.40
2019-03-26T09:45:46.343Z,19.43
2019-03-26T09:48:12.748Z,18.50
2019-03-26T09:50:39.482Z,15.03
2019-03-26T09:53:05.818Z,14.87
2019-03-26T09:55:32.196Z,13.27
2019-03-26T09:57:58.555Z,20.57
2019-03-26T10:00:25.226Z,15.57
2019-03-26T10:02:51.644Z,14.00
2019-03-26T10:05:18.444Z,14.63
2019-03-26T10:07:45.238Z,14.20
2019-03-26T10:10:12.408Z,14.10
2019-03-26T10:12:39.422Z,13.33
2019-03-26T10:15:06.688Z,9.10
2019-03-26T10:17:33.413Z,8.67
2019-03-26T10:19:59.767Z,7.00
2019-03-26T10:22:26.072Z,13.87
2019-03-26T10:24:52.426Z,12.70
2019-03-26T10:27:19.133Z,8.20
2019-03-26T10:29:45.506Z,12.63
2019-03-26T10:32:11.837Z,12.47
2019-03-26T10:34:38.209Z,8.33
2019-03-26T10:37:05.187Z,7.90
2019-03-26T10:39:32.017Z,10.73
2019-03-26T10:41:58.771Z,14.17
2019-03-26T10:44:25.434Z,11.40
2019-03-26T10:46:51.781Z,13.63
2019-03-26T10:49:18.110Z,14.23
2019-03-26T10:51:47.693Z,16.73
2019-03-26T10:54:14.142Z,18.30
2019-03-26T10:56:40.513Z,10.37
2019-03-26T10:59:06.910Z,11.90
2019-03-26T11:01:33.498Z,10.47
2019-03-26T11:04:00.237Z,13.17
2019-03-26T11:06:26.616Z,20.73
2019-03-26T11:08:54.335Z,7.37
2019-03-26T11:11:24.166Z,6.33
2019-03-26T11:13:50.506Z,7.80
2019-03-26T11:16:16.869Z,9.10
2019-03-26T11:18:43.309Z,8.50
2019-03-26T11:21:09.898Z,12.37
2019-03-26T11:23:36.260Z,7.83
2019-03-26T11:26:02.811Z,6.73
2019-03-26T11:28:29.513Z,13.70
2019-03-26T11:30:55.860Z,7.73
2019-03-26T11:33:22.219Z,7.33
2019-03-26T11:35:49.099Z,7.07
2019-03-26T11:38:18.369Z,7.20
2019-03-26T11:40:43.964Z,4.63
2019-03-26T11:43:10.573Z,6.80
2019-03-26T11:45:37.238Z,7.80
2019-03-26T11:48:03.987Z,5.10
2019-03-26T11:50:30.372Z,14.50
2019-03-26T11:52:56.673Z,8.53
2019-03-26T11:55:23.547Z,8.17
2019-03-26T11:57:49.909Z,10.20
2019-03-26T12:00:19.274Z,13.50
2019-03-26T12:02:46.027Z,13.33
2019-03-26T12:05:13.172Z,6.03
2019-03-26T12:07:42.711Z,10.60
2019-03-26T12:10:08.354Z,8.30
2019-03-26T12:12:35.354Z,6.60
2019-03-26T12:15:03.529Z,12.57
2019-03-26T12:17:29.851Z,7.40
2019-03-26T12:19:56.625Z,8.83
2019-03-26T12:22:23.029Z,15.83
2019-03-26T12:24:50.901Z,15.53
2019-03-26T12:27:17.732Z,10.17
2019-03-26T12:29:44.087Z,9.50
2019-03-26T12:32:10.414Z,9.00
2019-03-26T12:34:37.861Z,12.47
2019-03-26T12:37:04.510Z,13.10
2019-03-26T12:39:30.851Z,6.87
2019-03-26T12:41:57.205Z,7.20
2019-03-26T12:44:23.510Z,5.03
2019-03-26T12:46:49.950Z,11.43
2019-03-26T12:49:16.655Z,11.90
2019-03-26T12:51:43.410Z,11.47
2019-03-26T12:54:09.746Z,8.00
2019-03-26T12:56:37.279Z,9.20
2019-03-26T12:59:04.677Z,6.23
2019-03-26T13:01:31.018Z,9.30
2019-03-26T13:03:57.820Z,7.10
2019-03-26T13:06:24.150Z,6.07
2019-03-26T13:08:50.484Z,5.97
2019-03-26T13:11:17.349Z,5.67
2019-03-26T13:13:44.064Z,5.20
2019-03-26T13:16:10.968Z,5.87
2019-03-26T13:18:37.281Z,5.27
2019-03-26T13:21:04.960Z,7.90
2019-03-26T13:23:31.287Z,6.40
2019-03-26T13:25:57.648Z,6.87
2019-03-26T13:28:24.046Z,4.63
2019-03-26T13:30:50.399Z,8.57
2019-03-26T13:33:16.780Z,6.87
2019-03-26T13:35:43.176Z,12.10
2019-03-26T13:38:09.945Z,9.20
2019-03-26T13:40:36.423Z,10.27
2019-03-26T13:43:02.907Z,4.73
2019-03-26T13:45:29.227Z,5.63
2019-03-26T13:47:55.993Z,5.60
2019-03-26T13:50:22.847Z,6.67
2019-03-26T13:52:49.181Z,6.20
2019-03-26T13:55:16.048Z,8.47
2019-03-26T13:57:42.390Z,7.37
2019-03-26T14:00:09.925Z,5.43
2019-03-26T14:02:36.478Z,2.87
2019-03-26T14:05:24.595Z,7.20
2019-03-26T14:07:52.181Z,8.93
2019-03-26T14:10:18.621Z,6.97
2019-03-26T14:12:44.996Z,11.13
2019-03-26T14:15:11.623Z,12.33
2019-03-26T14:17:38.354Z,5.00
2019-03-26T14:20:05.448Z,9.77
2019-03-26T14:22:31.791Z,10.90
2019-03-26T14:24:58.112Z,4.40
2019-03-26T14:27:24.836Z,9.10
2019-03-26T14:29:51.160Z,8.63
2019-03-26T14:32:17.673Z,11.67
2019-03-26T14:34:44.027Z,12.80
2019-03-26T14:37:10.781Z,9.07
2019-03-26T14:39:37.098Z,4.27
2019-03-26T14:42:03.633Z,7.17
2019-03-26T14:44:30.068Z,5.97
2019-03-26T14:46:58.958Z,5.80
2019-03-26T14:49:25.287Z,9.20
2019-03-26T14:51:51.747Z,3.43
2019-03-26T14:54:18.601Z,5.17
2019-03-26T14:56:45.153Z,10.87
2019-03-26T14:59:11.884Z,13.30
2019-03-26T15:01:43.131Z,7.70
2019-03-26T15:04:10.307Z,6.80
2019-03-26T15:06:36.681Z,7.50
2019-03-26T15:09:06.356Z,10.73
2019-03-26T15:11:33.241Z,8.10
2019-03-26T15:13:59.965Z,3.80
2019-03-26T15:16:26.315Z,11.47
2019-03-26T15:18:52.726Z,8.70
2019-03-26T15:21:20.541Z,7.47
2019-03-26T15:23:46.967Z,7.87
2019-03-26T15:26:13.288Z,8.87
2019-03-26T15:28:40.100Z,7.03
2019-03-26T15:31:06.488Z,11.67
2019-03-26T15:33:33.900Z,8.83
2019-03-26T15:36:00.467Z,6.77
2019-03-26T15:38:26.822Z,17.73
2019-03-26T15:40:53.149Z,7.53
2019-03-26T15:43:19.528Z,10.87
2019-03-26T15:45:46.171Z,5.57
2019-03-26T15:48:13.885Z,9.40
2019-03-26T15:50:43.847Z,9.53
2019-03-26T15:53:10.797Z,11.07
2019-03-26T15:55:38.047Z,3.73
2019-03-26T15:58:04.947Z,9.03
2019-03-26T16:00:31.967Z,9.37
2019-03-26T16:02:58.612Z,5.90
2019-03-26T16:05:25.326Z,14.03
2019-03-26T16:07:52.160Z,8.03
2019-03-26T16:10:19.026Z,4.63
2019-03-26T16:12:45.960Z,9.10
2019-03-26T16:15:12.698Z,6.57
2019-03-26T16:17:39.435Z,5.00
2019-03-26T16:20:05.994Z,7.30
2019-03-26T16:22:32.809Z,7.40
2019-03-26T16:24:59.548Z,6.83
2019-03-26T16:27:25.940Z,3.10
2019-03-26T16:29:52.825Z,9.67
2019-03-26T16:32:22.547Z,8.50
2019-03-26T16:34:50.706Z,8.17
2019-03-26T16:37:20.454Z,8.37
2019-03-26T16:39:49.953Z,10.90
2019-03-26T16:42:16.407Z,6.70
2019-03-26T16:44:43.228Z,4.73
2019-03-26T16:47:13.440Z,8.57
2019-03-26T16:49:39.822Z,6.20
2019-03-26T16:52:06.518Z,6.63
2019-03-26T16:54:32.925Z,5.17
2019-03-26T16:57:01.516Z,6.90
2019-03-26T16:59:28.230Z,17.60
2019-03-26T17:01:54.882Z,8.47
2019-03-26T17:04:21.640Z,5.87
2019-03-26T17:06:48.277Z,3.80
2019-03-26T17:09:15.919Z,7.33
2019-03-26T17:11:42.582Z,8.93
2019-03-26T17:14:08.913Z,3.93
2019-03-26T17:16:35.581Z,7.77
2019-03-26T17:19:02.302Z,6.33
2019-03-26T17:21:29.048Z,6.27
2019-03-26T17:23:55.787Z,8.00
2019-03-26T17:26:22.439Z,12.70
2019-03-26T17:28:48.916Z,15.90
2019-03-26T17:31:15.353Z,14.30
2019-03-26T17:33:43.450Z,7.10
2019-03-26T17:36:10.207Z,7.97
2019-03-26T17:38:37.161Z,14.10
2019-03-26T17:41:03.767Z,13.13
2019-03-26T17:43:30.106Z,10.70
2019-03-26T17:45:56.735Z,8.40
2019-03-26T17:48:23.376Z,11.00
2019-03-26T17:50:49.708Z,12.67
2019-03-26T17:53:16.038Z,9.23
2019-03-26T17:55:42.399Z,17.33
2019-03-26T17:58:09.223Z,9.13
2019-03-26T18:00:39.855Z,7.37
2019-03-26T18:03:06.327Z,11.83
2019-03-26T18:05:33.054Z,10.00
2019-03-26T18:07:59.486Z,11.70
2019-03-26T18:10:25.878Z,8.97
2019-03-26T18:12:52.320Z,9.20
2019-03-26T18:15:19.032Z,13.20
2019-03-26T18:17:45.390Z,6.90
2019-03-26T18:20:12.469Z,10.67
2019-03-26T18:22:39.551Z,12.67
2019-03-26T18:25:06.402Z,9.47
2019-03-26T18:27:32.867Z,9.93
2019-03-26T18:29:59.717Z,13.10
2019-03-26T18:32:26.367Z,10.73
2019-03-26T18:34:52.996Z,8.30
2019-03-26T18:37:21.388Z,9.73
2019-03-26T18:39:47.943Z,13.00
2019-03-26T18:42:21.632Z,13.47
2019-03-26T18:44:48.094Z,8.80
2019-03-26T18:47:15.654Z,11.70
2019-03-26T18:49:43.270Z,7.00
2019-03-26T18:52:10.736Z,6.47
2019-03-26T18:54:37.470Z,8.53
2019-03-26T18:57:04.080Z,11.13
2019-03-26T18:59:30.444Z,18.07
2019-03-26T19:01:57.221Z,8.10
2019-03-26T19:04:24.695Z,8.03
2019-03-26T19:06:51.042Z,8.40
2019-03-26T19:09:17.461Z,9.33
2019-03-26T19:11:44.153Z,9.43
2019-03-26T19:14:10.780Z,8.77
2019-03-26T19:16:37.170Z,9.43
2019-03-26T19:19:03.763Z,12.13
2019-03-26T19:21:30.130Z,8.83
2019-03-26T19:24:03.891Z,10.90
2019-03-26T19:26:25.145Z,9.50
2019-03-26T19:28:51.896Z,11.97
2019-03-26T19:31:18.271Z,15.10
2019-03-26T19:33:45.023Z,15.77
2019-03-26T19:36:11.645Z,9.50
2019-03-26T19:38:38.317Z,12.33
2019-03-26T19:41:04.731Z,12.80
2019-03-26T19:43:31.079Z,15.13
2019-03-26T19:45:57.794Z,13.13
2019-03-26T19:48:24.564Z,11.97
2019-03-26T19:50:50.965Z,11.83
2019-03-26T19:53:17.313Z,13.00
2019-03-26T19:55:44.768Z,9.67
2019-03-26T19:58:11.405Z,16.17
2019-03-26T20:00:38.150Z,12.30
2019-03-26T20:03:04.728Z,11.80
2019-03-26T20:05:31.544Z,12.23
2019-03-26T20:07:57.920Z,12.10
2019-03-26T20:10:24.350Z,15.43
2019-03-26T20:12:51.179Z,12.53
2019-03-26T20:15:17.816Z,14.20
2019-03-26T20:17:44.953Z,13.27
2019-03-26T20:20:11.978Z,10.50
2019-03-26T20:22:39.402Z,12.10
2019-03-26T20:25:07.524Z,15.73
2019-03-26T20:27:34.144Z,15.30
2019-03-26T20:30:02.167Z,11.90
2019-03-26T20:32:28.962Z,17.57
2019-03-26T20:34:55.478Z,13.33
2019-03-26T20:37:22.866Z,12.50
2019-03-26T20:39:49.483Z,15.30
2019-03-26T20:42:15.970Z,16.57
2019-03-26T20:44:42.738Z,15.30
2019-03-26T20:47:09.293Z,12.20
2019-03-26T20:49:36.035Z,15.83
2019-03-26T20:52:02.411Z,12.10
2019-03-26T20:54:29.357Z,12.50
2019-03-26T20:56:56.253Z,14.20
2019-03-26T20:59:23.310Z,10.13
2019-03-26T21:01:50.094Z,12.30
2019-03-26T21:04:17.189Z,14.43
2019-03-26T21:06:44.979Z,18.97
2019-03-26T21:09:11.304Z,13.10
2019-03-26T21:11:38.046Z,9.53
2019-03-26T21:14:04.414Z,10.07
2019-03-26T21:16:30.745Z,12.07
2019-03-26T21:18:57.661Z,9.60
2019-03-26T21:21:24.017Z,13.97
2019-03-26T21:23:50.388Z,12.00
2019-03-26T21:26:16.805Z,15.13
2019-03-26T21:28:43.217Z,11.00
2019-03-26T21:31:09.584Z,12.80
2019-03-26T21:33:35.954Z,12.20
2019-03-26T21:36:02.788Z,13.53
2019-03-26T21:38:29.525Z,15.33
2019-03-26T21:40:57.802Z,13.33
2019-03-26T21:43:24.274Z,7.97
2019-03-26T21:45:50.727Z,10.33
2019-03-26T21:48:17.731Z,9.63
2019-03-26T21:50:44.047Z,15.33
2019-03-26T21:53:10.695Z,14.70
2019-03-26T21:55:37.418Z,11.00
2019-03-26T21:58:04.175Z,10.73
2019-03-26T22:00:31.328Z,9.03
2019-03-26T22:02:57.790Z,14.93
2019-03-26T22:05:24.172Z,17.33
2019-03-26T22:07:50.837Z,8.70
2019-03-26T22:10:18.418Z,11.10
2019-03-26T22:12:46.325Z,11.90
2019-03-26T22:15:13.978Z,12.73
2019-03-26T22:17:40.654Z,12.07
2019-03-26T22:20:07.980Z,9.70
2019-03-26T22:22:34.409Z,13.53
2019-03-26T22:25:03.835Z,14.23
2019-03-26T22:27:30.515Z,7.50
2019-03-26T22:29:56.873Z,10.03
2019-03-26T22:32:23.597Z,10.23
2019-03-26T22:34:50.495Z,9.83
2019-03-26T22:37:17.245Z,14.10
2019-03-26T22:39:43.874Z,10.57
2019-03-26T22:42:10.502Z,9.67
2019-03-26T22:44:37.147Z,11.87
2019-03-26T22:47:05.735Z,10.70
2019-03-26T22:49:32.071Z,10.77
2019-03-26T22:51:58.714Z,12.03
2019-03-26T22:54:25.065Z,13.67
2019-03-26T22:56:51.406Z,6.20
2019-03-26T22:59:18.176Z,6.77
2019-03-26T23:01:44.952Z,12.10
2019-03-26T23:04:12.615Z,11.50
2019-03-26T23:06:38.946Z,7.93
2019-03-26T23:09:05.756Z,9.47
2019-03-26T23:11:34.012Z,7.60
2019-03-26T23:14:01.390Z,6.73
2019-03-26T23:16:28.326Z,7.47
2019-03-26T23:18:55.019Z,6.47
2019-03-26T23:21:21.323Z,5.90
2019-03-26T23:23:48.084Z,13.13
2019-03-26T23:26:14.505Z,6.50
2019-03-26T23:28:40.909Z,7.63
2019-03-26T23:31:10.979Z,6.20
2019-03-26T23:33:37.484Z,10.93
2019-03-26T23:36:03.847Z,8.07
2019-03-26T23:38:32.978Z,9.13
2019-03-26T23:40:59.664Z,5.87
2019-03-26T23:43:25.986Z,3.37
2019-03-26T23:45:54.338Z,7.13
2019-03-26T23:48:20.658Z,5.40
2019-03-26T23:50:47.027Z,4.33
2019-03-26T23:53:13.879Z,7.47
2019-03-26T23:55:40.208Z,5.20
2019-03-26T23:58:06.623Z,8.17
